Tuesday, February 20, 2018, 9:24 AM GMT
Back to Local

CYKF, Waterloo Well

Location: , , Canada Lat: 43.467
Local Time: 9:24 AM GMT ( 9:24 GMT) Lon: -80.383
Time Zone: GMT Elev: 1040 ft

Show me the last for .
Show Decoded

2018-02-20 09:00 METAR CYKF 200900Z AUTO 17006KT 1/4SM -RA FG VV002 08/08 A2998 RMK SLP160 =
2018-02-20 08:00 METAR CYKF 200800Z AUTO 18008KT 1/4SM -RA FG VV003 09/09 A2997 RMK SLP158 =
2018-02-20 07:00 METAR CYKF 200700Z AUTO 17007KT 1/8SM -RA FG VV002 08/08 A2998 RMK SLP161 =
2018-02-20 06:00 METAR CYKF 200600Z AUTO 18005KT 1/4SM -RA FG VV003 09/09 A2998 RMK SLP161 =
2018-02-20 05:37 METAR CYKF 200537Z AUTO 18006KT 1/2SM -RA FG BKN003 OVC007 09/09 A2999 RMK
                 SLP163 =
2018-02-20 05:27 METAR CYKF 200527Z AUTO 19006KT 1 1/4SM -RA BR OVC005 09/09 A2999 RMK SLP164 =
2018-02-20 05:20 METAR CYKF 200520Z AUTO 18006KT 1 3/4SM -RA BR OVC007 09/09 A2999 RMK VIS VRB 1
                 1/4-3 SLP165 =
2018-02-20 05:14 METAR CYKF 200514Z AUTO 18006KT 2 1/2SM -RA BR OVC007 09/09 A2999 RMK SLP166 =
2018-02-20 05:11 METAR CYKF 200511Z AUTO 18006KT 4SM -RA BR OVC007 09/09 A2999 RMK SLP166 =
2018-02-20 05:09 METAR CYKF 200509Z AUTO 18006KT 6SM -RA BR OVC007 09/09 A2999 RMK SLP166 =
2018-02-20 05:08 METAR CYKF 200508Z AUTO 19006KT 6SM OVC007 09/09 A2999 RMK PCPN MISG SLP166 =
2018-02-20 05:03 METAR CYKF 200503Z AUTO 19006KT 6SM -RA BR OVC007 09/09 A3000 RMK SLP167 =
2018-02-20 05:00 METAR CYKF 200500Z AUTO 19005KT 5SM -RA BR OVC007 09/09 A2999 RMK SLP166 =
2018-02-20 04:52 METAR CYKF 200452Z AUTO 23005KT 4SM -RA BR OVC007 09/09 A2999 RMK SLP165 =
2018-02-20 04:32 METAR CYKF 200432Z AUTO 28005KT 5SM BR OVC007 10/10 A2999 RMK SLP163 =
2018-02-20 04:23 METAR CYKF 200423Z AUTO 26009KT 8SM OVC007 10/10 A2998 RMK SLP161 =
2018-02-20 04:16 METAR CYKF 200416Z AUTO 26010G19KT 6SM -RA BR BKN007 OVC012 10/10 A2998 RMK
                 SLP161 =
2018-02-20 04:15 METAR CYKF 200415Z AUTO 25010G19KT 5SM -RA BR OVC007 10/10 A2998 RMK SLP161 =
2018-02-20 04:14 METAR CYKF 200414Z AUTO 25010G19KT 4SM -RA BR BKN005 OVC010 10/10 A2998 RMK
                 SLP161 =
2018-02-20 04:13 METAR CYKF 200413Z AUTO 24012KT 3SM -RA BR OVC007 10/10 A2998 RMK SLP160 =
2018-02-20 04:10 METAR CYKF 200410Z AUTO 24013G19KT 2SM -RA BR BKN005 OVC011 10/10 A2998 RMK
                 SLP160 =
2018-02-20 04:00 METAR CYKF 200400Z AUTO 22009KT 1SM -RA BR OVC005 10/10 A2998 RMK SLP161 =
2018-02-20 03:55 METAR CYKF 200355Z AUTO 22008KT 3/4SM -RA BR OVC005 09/09 A2998 RMK SLP161 =
2018-02-20 03:00 METAR CYKF 200300Z AUTO 20007KT 3/8SM -RA FG OVC005 07/07 A2997 RMK SLP159 =
2018-02-20 02:06 METAR CYKF 200206Z AUTO 09004KT 1/2SM -RA FG OVC003 03/03 A2997 RMK SLP160 =
2018-02-20 02:01 METAR CYKF 200201Z AUTO 09004KT 1/2SM -RA -UP FG OVC003 03/03 A2997 RMK SLP160 =
2018-02-20 02:00 METAR CYKF 200200Z AUTO 09004KT 5/8SM -UP BR OVC003 03/03 A2997 RMK SLP160 =
2018-02-20 01:40 METAR CYKF 200140Z AUTO 08006KT 1/2SM -UP FG OVC003 03/03 A2997 RMK SLP160 =
2018-02-20 01:34 METAR CYKF 200134Z AUTO 08006KT 1/2SM -RA -UP FG OVC003 03/03 A2997 RMK SLP161 =
2018-02-20 01:26 METAR CYKF 200126Z AUTO 07006KT 1/2SM -RA FG OVC003 03/03 A2997 RMK SLP161 =
2018-02-20 01:00 METAR CYKF 200100Z AUTO 04005KT 1SM -RA BR OVC003 04/04 A2997 RMK SLP161 =
2018-02-20 00:22 METAR CYKF 200022Z AUTO 09006KT 3/4SM -RA BR VV005 03/03 A2996 RMK SLP161 =
2018-02-20 00:11 METAR CYKF 200011Z AUTO 07006KT 3/4SM -RA SCT003 OVC007 03/03 A2997 RMK SLP163 =
2018-02-20 00:00 METAR CYKF 200000Z AUTO 06004KT 3/4SM -RA BR OVC004 04/04 A2997 RMK PCPN 1.2MM
                 PAST HR SLP163 =
2018-02-19 23:36 METAR CYKF 192336Z AUTO 02003KT 320V120 3/4SM -RA BR BKN004 OVC008 03/03 A2996
                 RMK PRESRR SLP161 =
2018-02-19 23:30 METAR CYKF 192330Z AUTO 09005KT 1SM -UP BR BKN004 OVC008 03/03 A2995 RMK VIS VRB
                 1/2-3 SLP158 =
2018-02-19 23:25 METAR CYKF 192325Z AUTO 08005KT 1 1/4SM -UP BR OVC006 04/04 A2995 RMK SLP155 =
2018-02-19 23:22 METAR CYKF 192322Z AUTO 10007KT 3/4SM -RA -UP BR OVC006 04/04 A2995 RMK SLP154 =
2018-02-19 23:20 METAR CYKF 192320Z AUTO 10009KT 5/8SM -RA -UP BR OVC006 04/04 A2994 RMK SLP153 =
2018-02-19 23:04 METAR CYKF 192304Z AUTO 08006KT 1/4SM -RA FG VV006 03/03 A2995 RMK PRESFR SLP156
                 =
2018-02-19 23:02 METAR CYKF 192302Z AUTO 09007KT VV006 03/03 A2995 RMK PRESFR WX MISG VIS MISG
                 PCPN MISG SLP156 =
2018-02-19 23:00 METAR CYKF 192300Z AUTO 09007KT VV005 03/03 A2995 RMK WX MISG VIS MISG PCPN MISG
                 SLP156 =
2018-02-19 22:53 METAR CYKF 192253Z AUTO 08006KT 1/8SM VV005 03/03 A2995 RMK PCPN MISG SLP158 =
2018-02-19 22:00 METAR CYKF 192200Z AUTO 12004KT 1/4SM -RA FG OVC003 04/04 A2996 RMK SLP160 =
2018-02-19 21:21 METAR CYKF 192121Z AUTO 18004KT 1/8SM -RA FG VV003 04/04 A2998 RMK SLP164 =
2018-02-19 21:07 METAR CYKF 192107Z AUTO 19006KT 1/8SM FG VV003 04/04 A2998 RMK SLP166 =
2018-02-19 21:00 METAR CYKF 192100Z AUTO 19006KT 1/8SM -RA FG VV002 04/04 A2998 RMK SLP166 =
2018-02-19 20:53 METAR CYKF 192053Z AUTO 18007KT 1/8SM -RA FG VV002 04/04 A2998 RMK SLP166 =
2018-02-19 20:00 METAR CYKF 192000Z AUTO 21006KT 1/8SM FG VV002 04/04 A2998 RMK SLP164 =
2018-02-19 19:00 METAR CYKF 191900Z AUTO 21006KT 1/4SM FG VV002 04/04 A2998 RMK SLP165 =
2018-02-19 18:09 METAR CYKF 191809Z AUTO 20008KT 5/8SM BR OVC002 04/04 A2999 RMK SLP171 =
2018-02-19 18:00 METAR CYKF 191800Z AUTO 19010KT 1 1/2SM BR OVC002 03/03 A2999 RMK SLP171 =
2018-02-19 17:58 METAR CYKF 191758Z AUTO 19011KT 1 3/4SM BR OVC002 03/03 A2999 RMK SLP171 =
2018-02-19 17:08 METAR CYKF 191708Z AUTO 20009KT 2 1/2SM BR OVC004 03/03 A3002 RMK SLP179 =
2018-02-19 17:00 METAR CYKF 191700Z AUTO 19007KT 3SM BR OVC004 03/03 A3001 RMK SLP175 =
2018-02-19 16:48 METAR CYKF 191648Z AUTO 20007KT 5SM BR OVC004 03/03 A3001 RMK SLP177 =
2018-02-19 16:33 METAR CYKF 191633Z AUTO 19005KT 5SM BR OVC006 03/03 A3002 RMK SLP178 =
2018-02-19 16:16 METAR CYKF 191616Z AUTO 18007KT 160V230 3SM -RA BR BKN008 OVC016 03/02 A3001 RMK
                 SLP177 =
2018-02-19 16:03 METAR CYKF 191603Z AUTO 20006KT 2 1/4SM -RA BR BKN008 BKN013 OVC018 03/02 A3002
                 RMK SLP180 =
2018-02-19 16:00 METAR CYKF 191600Z AUTO 19008KT 2 1/2SM -RA BR BKN010 OVC018 03/02 A3002 RMK
                 SLP179 =
2018-02-19 15:58 METAR CYKF 191558Z AUTO 20007KT 2 1/2SM -RA BR BKN010 OVC018 03/02 A3002 RMK
                 SLP179 =
2018-02-19 15:46 METAR CYKF 191546Z AUTO 20011KT 5SM -RA BR OVC013 03/02 A3003 RMK SLP183 =
2018-02-19 15:29 METAR CYKF 191529Z AUTO 20010G16KT 9SM -RA BKN015 OVC032 03/01 A3003 RMK SLP184
                 =
2018-02-19 15:18 METAR CYKF 191518Z AUTO 20012KT 9SM -RA OVC032 03/00 A3003 RMK SLP182 =
2018-02-19 15:11 METAR CYKF 191511Z AUTO 19010G16KT 9SM OVC032 03/00 A3002 RMK SLP178 =
2018-02-19 15:00 METAR CYKF 191500Z AUTO 20011G18KT 9SM -RA OVC032 03/M00 A3003 RMK SLP183 =
2018-02-19 14:43 METAR CYKF 191443Z AUTO 19010G15KT 9SM -RA OVC034 02/M01 A3003 RMK SLP184 =
2018-02-19 14:00 METAR CYKF 191400Z AUTO 19008KT 9SM BKN043 OVC085 02/M02 A3002 RMK SLP179 =
2018-02-19 13:00 METAR CYKF 191300Z AUTO 18010KT 9SM OVC065 00/M03 A3005 RMK SLP191 =
2018-02-19 12:00 METAR CYKF 191200Z AUTO 10004KT 6SM BR OVC085 M04/M04 A3005 RMK SLP193 =
2018-02-19 11:00 METAR CYKF 191100Z AUTO 36002KT 8SM OVC100 M04/M04 A3007 RMK SLP199 =
2018-02-19 10:00 METAR CYKF 191000Z AUTO 13005KT 9SM BKN230 BKN250 M04/M05 A3006 RMK SLP195 =

Support USWX by starting your Amazon purchase here.